Time;durP1;ratioP1;P1;durP2;ratioP2;P2;SDS_P1;SDS_P2;PMS_P1;PMS_P2;Temp;Humidity;BMP_temperature;BMP_pressure;BME280_temperature;BME280_humidity;BME280_pressure;Samples;Min_cycle;Max_cycle;Signal;HPM_P1;HPM_P2
2024/04/03 00:00:52;;;;;;;2.13;1.15;;;358.50;2329.60;;;;;;5041901;28;20518;-73
2024/04/03 00:03:18;;;;;;;2.53;1.20;;;358.50;2329.60;;;;;;5023884;28;20088;-72
2024/04/03 00:05:44;;;;;;;3.35;1.00;;;358.50;2329.60;;;;;;5037576;28;20057;-72
2024/04/03 00:08:14;;;;;;;1.80;0.90;;;358.40;2329.60;;;;;;5025722;28;20025;-73
2024/04/03 00:10:40;;;;;;;3.08;1.15;;;358.40;2329.60;;;;;;5026100;28;20044;-74
2024/04/03 00:13:06;;;;;;;1.95;0.80;;;358.40;2329.60;;;;;;5025733;28;20022;-73
2024/04/03 00:15:31;;;;;;;2.15;1.10;;;333.70;2329.60;;;;;;5034078;28;20044;-73
2024/04/03 00:17:58;;;;;;;2.95;1.05;;;333.70;2329.60;;;;;;5023934;28;20056;-75
2024/04/03 00:20:24;;;;;;;1.52;1.13;;;358.40;2329.60;;;;;;5026610;28;20063;-72
2024/04/03 00:22:50;;;;;;;1.42;1.00;;;358.40;2329.60;;;;;;5024115;28;20028;-72
2024/04/03 00:25:17;;;;;;;1.83;0.70;;;358.50;2329.60;;;;;;5033935;28;20021;-73
2024/04/03 00:27:43;;;;;;;2.20;0.80;;;358.40;2329.60;;;;;;5026802;28;20033;-74
2024/04/03 00:30:10;;;;;;;4.10;0.77;;;358.50;2329.60;;;;;;5035037;28;20516;-76
2024/04/03 00:32:35;;;;;;;2.13;1.35;;;358.50;2329.60;;;;;;5012096;28;20057;-75
2024/04/03 00:35:02;;;;;;;3.05;0.90;;;358.60;2329.60;;;;;;5032704;28;20072;-72
2024/04/03 00:37:35;;;;;;;1.95;0.75;;;358.60;2329.60;;;;;;5022759;28;20029;-75
2024/04/03 00:40:02;;;;;;;2.28;1.17;;;358.60;2329.60;;;;;;5031881;28;20017;-72
2024/04/03 00:42:28;;;;;;;3.85;1.17;;;358.60;2329.60;;;;;;5028840;28;20028;-72
2024/04/03 00:44:53;;;;;;;3.55;1.08;;;358.60;2329.60;;;;;;5033686;28;20037;-72
2024/04/03 00:47:20;;;;;;;1.88;1.00;;;358.50;2329.60;;;;;;5038379;28;20025;-72
2024/04/03 00:49:47;;;;;;;2.53;0.73;;;358.50;2329.60;;;;;;5031995;28;20029;-73
2024/04/03 00:52:13;;;;;;;1.35;0.80;;;358.50;2329.60;;;;;;5023469;28;20464;-73
2024/04/03 00:54:41;;;;;;;6.03;0.80;;;358.50;2329.60;;;;;;5029437;28;20025;-74
2024/04/03 00:57:07;;;;;;;2.55;0.75;;;358.50;2329.60;;;;;;5028474;28;20025;-74
2024/04/03 00:59:34;;;;;;;1.38;0.73;;;358.50;2329.60;;;;;;5024680;28;20527;-73
2024/04/03 01:02:01;;;;;;;1.58;0.90;;;358.40;2329.60;;;;;;5034584;28;20092;-74
2024/04/03 01:04:27;;;;;;;2.08;0.60;;;358.40;2329.60;;;;;;5035082;28;20049;-73
2024/04/03 01:06:53;;;;;;;1.55;0.70;;;358.40;2329.60;;;;;;5034095;28;20033;-73
2024/04/03 01:09:19;;;;;;;3.25;1.08;;;333.70;2329.60;;;;;;5031999;28;20434;-73
2024/04/03 01:11:46;;;;;;;2.40;0.80;;;358.40;2329.60;;;;;;5035273;28;20026;-73
2024/04/03 01:14:13;;;;;;;1.38;0.80;;;333.70;2329.60;;;;;;5035032;28;20013;-73
2024/04/03 01:16:42;;;;;;;1.20;0.70;;;333.70;2329.60;;;;;;5034496;28;20049;-72
2024/04/03 01:19:08;;;;;;;1.40;0.68;;;333.70;2329.60;;;;;;5035180;28;20017;-74
2024/04/03 01:21:34;;;;;;;1.75;0.95;;;333.60;2329.60;;;;;;5035191;28;20475;-74
2024/04/03 01:24:00;;;;;;;2.42;1.02;;;333.60;2329.60;;;;;;5034980;28;20025;-74
2024/04/03 01:26:27;;;;;;;1.27;0.82;;;333.60;2329.60;;;;;;5034956;28;20558;-74
2024/04/03 01:28:53;;;;;;;1.40;0.95;;;333.60;2329.60;;;;;;5034929;28;20029;-74
2024/04/03 01:31:19;;;;;;;1.85;0.80;;;333.60;2329.60;;;;;;5034736;28;20479;-73
2024/04/03 01:33:45;;;;;;;2.25;1.05;;;333.50;2329.60;;;;;;5034956;28;20084;-73
2024/04/03 01:36:11;;;;;;;2.15;1.25;;;333.60;2329.60;;;;;;5034718;28;20080;-73
2024/04/03 01:38:37;;;;;;;4.40;1.00;;;333.60;2329.60;;;;;;5017215;28;20056;-73
2024/04/03 01:41:03;;;;;;;2.20;0.60;;;333.70;2329.60;;;;;;5034684;28;20076;-73
2024/04/03 01:43:29;;;;;;;1.98;0.82;;;333.70;2329.60;;;;;;5034637;28;20022;-73
2024/04/03 01:45:59;;;;;;;2.58;1.10;;;333.70;2329.60;;;;;;5034597;28;20529;-78
2024/04/03 01:48:25;;;;;;;4.68;1.17;;;333.50;2329.60;;;;;;5034442;28;20021;-73
2024/04/03 01:50:51;;;;;;;1.77;0.80;;;333.50;2329.60;;;;;;5034414;28;20545;-73
2024/04/03 01:53:17;;;;;;;2.28;1.15;;;333.50;2329.60;;;;;;5034262;28;20009;-73
2024/04/03 01:55:57;;;;;;;1.80;0.85;;;333.50;2329.60;;;;;;5034182;28;20526;-74
2024/04/03 01:58:23;;;;;;;2.20;0.80;;;333.40;2329.60;;;;;;5033969;28;20025;-73
2024/04/03 02:00:50;;;;;;;1.95;0.80;;;333.40;2329.60;;;;;;5031740;28;20025;-74
2024/04/03 02:03:17;;;;;;;4.13;1.20;;;333.40;2329.60;;;;;;5039452;28;20049;-73
2024/04/03 02:05:47;;;;;;;2.92;1.25;;;333.40;2329.60;;;;;;5041285;28;20037;-73
2024/04/03 02:08:15;;;;;;;2.38;1.25;;;333.30;2329.60;;;;;;5034318;28;20017;-73
2024/04/03 02:10:40;;;;;;;1.88;1.05;;;333.30;2329.60;;;;;;5033820;28;20029;-75
2024/04/03 02:13:07;;;;;;;3.13;1.35;;;333.30;2329.60;;;;;;5033773;28;20022;-73
2024/04/03 02:15:32;;;;;;;3.85;1.05;;;333.30;2329.60;;;;;;5033545;28;20068;-73
2024/04/03 02:17:58;;;;;;;3.58;1.05;;;333.20;2329.60;;;;;;5034032;28;20061;-73
2024/04/03 02:20:24;;;;;;;2.30;1.10;;;333.20;2329.60;;;;;;5033891;28;20064;-73
2024/04/03 02:22:51;;;;;;;5.45;1.55;;;333.20;2329.60;;;;;;5033629;28;20037;-73
2024/04/03 02:25:17;;;;;;;2.35;1.52;;;333.10;2329.60;;;;;;5031206;28;20031;-78
2024/04/03 02:27:44;;;;;;;1.48;0.98;;;332.90;2329.60;;;;;;5032997;28;20025;-73
2024/04/03 02:30:10;;;;;;;3.13;1.10;;;332.80;2329.60;;;;;;5029415;28;20029;-75
2024/04/03 02:32:36;;;;;;;2.28;1.15;;;308.00;2304.00;;;;;;5042840;28;20021;-72
2024/04/03 02:35:02;;;;;;;3.22;1.20;;;307.70;2304.00;;;;;;5033230;28;20030;-73
2024/04/03 02:37:28;;;;;;;3.72;1.77;;;307.30;2304.00;;;;;;5035803;28;20037;-73
2024/04/03 02:39:54;;;;;;;5.07;1.85;;;282.50;2278.40;;;;;;5049621;28;20052;-73
2024/04/03 02:42:20;;;;;;;6.00;1.55;;;282.50;2278.40;;;;;;5033613;28;20025;-73
2024/04/03 02:44:45;;;;;;;3.28;1.45;;;282.50;2278.40;;;;;;5033320;28;20017;-74
2024/04/03 02:47:12;;;;;;;5.50;2.28;;;282.50;2278.40;;;;;;5033111;28;20029;-78
2024/04/03 02:49:38;;;;;;;6.93;2.15;;;282.50;2278.40;;;;;;5033405;28;20025;-74
2024/04/03 02:52:04;;;;;;;5.35;2.35;;;282.40;2278.40;;;;;;5036930;28;20033;-78
2024/04/03 02:54:32;;;;;;;11.50;1.88;;;282.40;2278.40;;;;;;5017266;28;20037;-74
2024/04/03 02:56:58;;;;;;;5.22;1.83;;;282.30;2278.40;;;;;;5033124;28;20033;-75
2024/04/03 02:59:24;;;;;;;4.28;1.80;;;282.00;2278.40;;;;;;5031803;28;20025;-74
2024/04/03 03:01:51;;;;;;;21.10;2.75;;;281.80;2278.40;;;;;;5041401;28;20028;-77
2024/04/03 03:04:17;;;;;;;4.10;1.58;;;256.90;2252.80;;;;;;5029911;28;20046;-71
2024/04/03 03:06:43;;;;;;;4.45;1.83;;;256.70;2252.80;;;;;;5041383;28;20025;-73
2024/04/03 03:09:09;;;;;;;7.47;1.55;;;256.50;2252.80;;;;;;5032800;28;20018;-73
2024/04/03 03:11:35;;;;;;;2.58;1.60;;;256.60;2252.80;;;;;;5032854;28;20029;-73
2024/04/03 03:14:01;;;;;;;7.97;2.10;;;256.60;2252.80;;;;;;5032911;28;20014;-73
2024/04/03 03:16:26;;;;;;;4.30;1.70;;;256.80;2252.80;;;;;;5033095;28;20081;-73
2024/04/03 03:18:52;;;;;;;4.43;1.70;;;281.60;2278.40;;;;;;5032871;28;20494;-73
2024/04/03 03:21:18;;;;;;;4.50;1.55;;;281.70;2278.40;;;;;;5015069;28;20071;-73
2024/04/03 03:23:44;;;;;;;5.63;2.40;;;282.00;2278.40;;;;;;5032651;28;20544;-72
2024/04/03 03:26:10;;;;;;;2.50;1.50;;;282.00;2278.40;;;;;;5032855;28;20033;-72
2024/04/03 03:28:35;;;;;;;;;;;282.20;2278.40;;;;;;5035832;28;20029;-72
2024/04/03 03:31:01;;;;;;;5.72;1.73;;;282.30;2278.40;;;;;;5052249;28;19904;-72
2024/04/03 03:33:27;;;;;;;10.45;1.65;;;282.30;2278.40;;;;;;5030949;28;20022;-73
2024/04/03 03:35:55;;;;;;;7.63;2.35;;;282.30;2278.40;;;;;;5034209;28;20556;-72
2024/04/03 03:38:21;;;;;;;10.63;2.35;;;282.20;2278.40;;;;;;5035456;28;20101;-72
2024/04/03 03:40:47;;;;;;;4.53;2.58;;;282.10;2278.40;;;;;;5036972;28;20131;-72
2024/04/03 03:43:14;;;;;;;5.95;3.20;;;282.10;2278.40;;;;;;5036648;28;20013;-73
2024/04/03 03:45:48;;;;;;;11.57;3.05;;;281.80;2278.40;;;;;;5036639;28;20030;-72
2024/04/03 03:48:15;;;;;;;5.38;3.10;;;282.30;2278.40;;;;;;5036727;28;20493;-73
2024/04/03 03:53:25;;;;;;;7.00;2.75;;;282.30;2278.40;;;;;;5024645;28;20029;-71
2024/04/03 03:55:52;;;;;;;9.13;3.35;;;282.20;2278.40;;;;;;5036294;28;20030;-73
2024/04/03 03:58:19;;;;;;;8.07;2.53;;;282.40;2278.40;;;;;;5036448;28;20459;-73
2024/04/03 04:00:45;;;;;;;5.80;1.83;;;282.30;2278.40;;;;;;5035726;28;20070;-72
2024/04/03 04:03:11;;;;;;;14.82;2.65;;;282.30;2278.40;;;;;;5036148;28;20518;-72
2024/04/03 04:05:36;;;;;;;7.78;2.15;;;282.30;2278.40;;;;;;5036169;28;20030;-73
2024/04/03 04:08:03;;;;;;;8.63;2.05;;;282.20;2278.40;;;;;;5036603;28;20025;-73
2024/04/03 04:10:29;;;;;;;15.57;2.13;;;282.30;2278.40;;;;;;5012855;28;20018;-73
2024/04/03 04:12:55;;;;;;;3.08;1.83;;;282.30;2278.40;;;;;;5036237;28;20022;-72
2024/04/03 04:15:22;;;;;;;5.63;2.40;;;282.40;2278.40;;;;;;5035562;28;20445;-73
2024/04/03 04:17:51;;;;;;;6.03;1.70;;;282.30;2278.40;;;;;;5018322;28;20080;-73
2024/04/03 04:20:17;;;;;;;11.55;3.67;;;282.40;2278.40;;;;;;5035770;28;20025;-73
2024/04/03 04:22:46;;;;;;;10.60;2.47;;;282.20;2278.40;;;;;;5047513;28;20467;-73
2024/04/03 04:25:13;;;;;;;6.88;1.40;;;282.20;2278.40;;;;;;5034921;28;20025;-74
2024/04/03 04:27:39;;;;;;;6.80;1.42;;;282.10;2278.40;;;;;;5036022;28;20025;-71
2024/04/03 04:30:06;;;;;;;8.68;1.70;;;282.00;2278.40;;;;;;5035452;28;20025;-72
2024/04/03 04:32:32;;;;;;;12.25;2.10;;;282.20;2278.40;;;;;;5029660;28;20172;-73
2024/04/03 04:34:58;;;;;;;9.80;2.22;;;281.80;2278.40;;;;;;5035771;28;20112;-73
2024/04/03 04:37:25;;;;;;;10.82;1.70;;;281.80;2278.40;;;;;;5036045;28;20482;-72
2024/04/03 04:39:51;;;;;;;18.77;2.80;;;256.90;2252.80;;;;;;5043810;28;20474;-73
2024/04/03 04:42:17;;;;;;;3.47;1.15;;;281.70;2278.40;;;;;;5035469;28;20407;-73
2024/04/03 04:44:42;;;;;;;4.75;1.40;;;281.60;2278.40;;;;;;5035079;28;20517;-72
2024/04/03 04:47:08;;;;;;;3.45;1.33;;;281.60;2278.40;;;;;;5035863;28;20101;-72
2024/04/03 04:49:34;;;;;;;4.65;1.60;;;281.60;2278.40;;;;;;5039194;28;20471;-73
2024/04/03 04:52:00;;;;;;;2.95;1.13;;;256.90;2252.80;;;;;;5034760;28;20101;-73
2024/04/03 04:54:26;;;;;;;4.07;1.88;;;281.70;2278.40;;;;;;5035334;28;20041;-71
2024/04/03 04:56:52;;;;;;;7.38;1.92;;;281.80;2278.40;;;;;;5035610;28;20458;-74
2024/04/03 04:59:18;;;;;;;5.43;1.70;;;281.70;2278.40;;;;;;5035071;28;20017;-73
2024/04/03 05:01:44;;;;;;;9.82;2.20;;;282.10;2278.40;;;;;;5035207;28;20541;-73
2024/04/03 05:04:11;;;;;;;4.13;1.80;;;281.80;2278.40;;;;;;5034931;28;20058;-72
2024/04/03 05:06:37;;;;;;;3.08;1.38;;;282.00;2278.40;;;;;;5034598;28;20034;-77
2024/04/03 05:09:03;;;;;;;3.15;1.58;;;281.90;2278.40;;;;;;5034656;28;20028;-72
2024/04/03 05:11:29;;;;;;;3.80;1.67;;;282.00;2278.40;;;;;;5035176;28;20033;-73
2024/04/03 05:13:55;;;;;;;4.55;1.70;;;282.00;2278.40;;;;;;5034521;28;20028;-72
2024/04/03 05:16:21;;;;;;;7.45;2.08;;;282.00;2278.40;;;;;;5034875;28;20399;-76
2024/04/03 05:18:49;;;;;;;5.35;1.98;;;282.00;2278.40;;;;;;5035010;28;20021;-71
2024/04/03 05:21:15;;;;;;;7.57;2.25;;;282.10;2278.40;;;;;;5035242;28;20029;-72
2024/04/03 05:23:48;;;;;;;5.10;2.28;;;282.00;2278.40;;;;;;5030950;28;20487;-72
2024/04/03 05:26:15;;;;;;;5.18;2.38;;;282.20;2278.40;;;;;;5037459;28;20025;-77
2024/04/03 05:28:41;;;;;;;5.20;2.00;;;282.30;2278.40;;;;;;5034714;28;20482;-75
2024/04/03 05:31:18;;;;;;;4.18;1.65;;;282.40;2278.40;;;;;;5016966;28;20493;-73
2024/04/03 05:33:44;;;;;;;6.95;2.40;;;307.30;2304.00;;;;;;5032090;28;20036;-75
2024/04/03 05:36:11;;;;;;;4.30;1.65;;;307.40;2304.00;;;;;;5016708;28;20033;-73
2024/04/03 05:38:38;;;;;;;3.03;1.52;;;307.40;2304.00;;;;;;5047353;28;20031;-75
2024/04/03 05:41:05;;;;;;;4.60;2.40;;;307.50;2304.00;;;;;;5013490;28;20029;-74
2024/04/03 05:43:31;;;;;;;5.20;2.42;;;307.50;2304.00;;;;;;5026872;28;20049;-73
2024/04/03 05:45:57;;;;;;;5.30;2.55;;;307.40;2304.00;;;;;;5032556;28;20029;-72
2024/04/03 05:48:24;;;;;;;5.18;2.28;;;307.40;2304.00;;;;;;5026832;28;20025;-73
2024/04/03 05:51:19;;;;;;;5.53;2.45;;;307.40;2304.00;;;;;;5021636;28;20025;-72
2024/04/03 05:53:45;;;;;;;6.18;2.33;;;307.50;2304.00;;;;;;4967274;28;20515;-75
2024/04/03 05:56:11;;;;;;;5.50;3.03;;;307.60;2304.00;;;;;;4964381;28;20148;-73
2024/04/03 05:58:36;;;;;;;5.13;2.80;;;307.60;2304.00;;;;;;4967263;28;20117;-73
2024/04/03 06:01:03;;;;;;;5.78;2.65;;;307.80;2304.00;;;;;;4959379;28;20031;-73
2024/04/03 06:03:29;;;;;;;5.15;2.42;;;307.70;2304.00;;;;;;4961342;28;20130;-78
2024/04/03 06:05:57;;;;;;;10.15;2.63;;;307.80;2304.00;;;;;;4961781;28;20035;-73
2024/04/03 06:08:23;;;;;;;8.75;2.65;;;308.00;2304.00;;;;;;4967580;28;20404;-72
2024/04/03 06:10:50;;;;;;;10.52;2.85;;;308.10;2304.00;;;;;;4962442;28;20031;-80
2024/04/03 06:13:16;;;;;;;4.20;2.40;;;308.10;2304.00;;;;;;4959754;28;20031;-72
2024/04/03 06:15:42;;;;;;;6.40;2.92;;;332.80;2329.60;;;;;;4961256;28;20501;-72
2024/04/03 06:18:07;;;;;;;7.68;2.70;;;332.90;2329.60;;;;;;4957763;28;20464;-72
2024/04/03 06:20:33;;;;;;;4.40;2.65;;;333.20;2329.60;;;;;;4960573;28;20034;-72
2024/04/03 06:22:59;;;;;;;6.45;3.38;;;333.30;2329.60;;;;;;4964869;28;20118;-74
2024/04/03 06:25:26;;;;;;;6.10;2.40;;;333.50;2329.60;;;;;;4967338;28;20437;-72
2024/04/03 06:27:53;;;;;;;6.70;2.53;;;333.60;2329.60;;;;;;4968787;28;20035;-71
2024/04/03 06:30:22;;;;;;;4.35;2.05;;;333.70;2329.60;;;;;;4998173;28;20037;-72
2024/04/03 06:32:49;;;;;;;8.23;2.70;;;333.70;2329.60;;;;;;5006187;28;20021;-73
2024/04/03 06:35:15;;;;;;;7.88;2.08;;;333.70;2329.60;;;;;;5017095;28;20075;-72
2024/04/03 06:37:41;;;;;;;7.55;2.30;;;358.50;2329.60;;;;;;5011802;28;20022;-75
2024/04/03 06:40:08;;;;;;;5.90;2.25;;;358.70;2329.60;;;;;;5011627;28;20484;-72
2024/04/03 06:42:35;;;;;;;6.00;2.20;;;358.80;2329.60;;;;;;5028646;28;20037;-74
2024/04/03 06:45:01;;;;;;;5.82;2.17;;;359.00;2329.60;;;;;;5035203;28;20105;-72
2024/04/03 06:47:27;;;;;;;5.97;2.30;;;359.00;2329.60;;;;;;5025659;28;20234;-74
2024/04/03 06:49:57;;;;;;;4.03;2.25;;;359.20;2329.60;;;;;;5027837;28;20014;-75
2024/04/03 06:52:26;;;;;;;7.00;2.15;;;359.20;2329.60;;;;;;5027323;28;20450;-74
2024/04/03 06:54:54;;;;;;;8.07;2.20;;;384.00;2329.60;;;;;;5030274;28;20031;-74
2024/04/03 06:57:21;;;;;;;5.35;2.58;;;384.10;2329.60;;;;;;5029985;28;20072;-75
2024/04/03 06:59:47;;;;;;;7.85;2.35;;;384.20;2329.60;;;;;;5033262;28;20467;-75
2024/04/03 07:02:13;;;;;;;4.20;1.70;;;384.70;2329.60;;;;;;5018564;28;20025;-79
2024/04/03 07:04:38;;;;;;;4.20;2.20;;;384.90;2329.60;;;;;;5020977;28;20508;-75
2024/04/03 07:07:05;;;;;;;3.78;1.88;;;409.70;2355.20;;;;;;5020496;28;20029;-76
2024/04/03 07:09:31;;;;;;;3.10;1.60;;;410.00;2355.20;;;;;;5024526;28;20081;-75
2024/04/03 07:11:57;;;;;;;3.63;1.73;;;410.20;2355.20;;;;;;5012375;28;20057;-75
2024/04/03 07:14:23;;;;;;;6.63;1.88;;;410.50;2355.20;;;;;;5012153;28;20041;-77
2024/04/03 07:16:48;;;;;;;4.32;1.70;;;435.40;2355.20;;;;;;5018356;28;20128;-76
2024/04/03 07:19:14;;;;;;;3.33;1.63;;;435.70;2355.20;;;;;;5039127;28;20044;-75
2024/04/03 07:21:42;;;;;;;4.07;1.73;;;;;;;;;;5026882;28;20060;-75
2024/04/03 07:24:11;;;;;;;3.88;2.17;;;435.90;2355.20;;;;;;5030787;28;20079;-75
2024/04/03 07:26:37;;;;;;;3.85;1.40;;;436.10;2355.20;;;;;;5038728;28;20096;-77
2024/04/03 07:29:04;;;;;;;4.18;1.85;;;460.90;2380.80;;;;;;5028504;28;20156;-76
2024/04/03 07:31:29;;;;;;;4.57;2.08;;;461.10;2380.80;;;;;;5026283;28;20483;-76
2024/04/03 07:33:55;;;;;;;5.22;2.17;;;461.00;2304.00;;;;;;5027526;28;20033;-77
2024/04/03 07:36:23;;;;;;;3.80;1.98;;;461.10;2329.60;;;;;;5001600;28;20030;-76
2024/04/03 07:38:48;;;;;;;4.88;1.83;;;461.40;2329.60;;;;;;5027369;28;20029;-80
2024/04/03 07:41:33;;;;;;;3.38;1.58;;;461.40;2278.40;;;;;;5014734;28;20036;-83
2024/04/03 07:43:58;;;;;;;4.05;1.83;;;461.70;2278.40;;;;;;5006888;28;20124;-77
2024/04/03 07:46:25;;;;;;;4.47;1.90;;;486.70;2176.00;;;;;;5020063;28;20104;-78
2024/04/03 07:48:51;;;;;;;3.40;1.90;;;486.60;2124.80;;;;;;5009833;28;20140;-79
2024/04/03 07:51:18;;;;;;;7.40;1.90;;;486.90;2099.20;;;;;;5023973;28;20017;-74
2024/04/03 07:53:44;;;;;;;4.40;1.52;;;487.00;2022.40;;;;;;5029031;28;20032;-75
2024/04/03 07:56:12;;;;;;;4.07;1.67;;;487.20;1971.20;;;;;;5029001;28;20037;-76
2024/04/03 07:58:38;;;;;;;4.60;1.83;;;487.30;1945.60;;;;;;5029871;28;20018;-75
2024/04/03 08:01:04;;;;;;;4.18;1.58;;;512.10;1894.40;;;;;;5022098;28;20017;-75
2024/04/03 08:03:30;;;;;;;3.65;1.42;;;512.00;1868.80;;;;;;5010863;28;20056;-75
2024/04/03 08:05:56;;;;;;;5.03;1.95;;;512.30;1894.40;;;;;;5021866;28;20030;-77
2024/04/03 08:08:27;;;;;;;10.18;2.05;;;512.70;1868.80;;;;;;5014946;28;20026;-76
2024/04/03 08:10:58;;;;;;;6.10;2.03;;;512.70;1843.20;;;;;;5026197;28;20028;-76
2024/04/03 08:13:24;;;;;;;6.03;1.70;;;512.70;1843.20;;;;;;5029332;28;20014;-79
2024/04/03 08:15:56;;;;;;;5.47;2.17;;;537.70;1843.20;;;;;;5026277;28;20030;-76
2024/04/03 08:18:22;;;;;;;6.05;1.90;;;537.90;1792.00;;;;;;5019743;28;20105;-75
2024/04/03 08:20:57;;;;;;;2.72;1.58;;;537.80;1740.80;;;;;;5027358;28;20550;-75
2024/04/03 08:23:23;;;;;;;4.85;1.40;;;538.10;1740.80;;;;;;5023455;28;20026;-75
2024/04/03 08:25:49;;;;;;;5.00;1.70;;;537.80;1715.20;;;;;;5033145;28;20456;-78
2024/04/03 08:28:14;;;;;;;6.10;1.88;;;538.30;1715.20;;;;;;5019998;28;20057;-76
2024/04/03 08:30:40;;;;;;;3.40;1.70;;;563.30;1689.60;;;;;;5029934;28;20467;-77
2024/04/03 08:33:10;;;;;;;6.97;2.00;;;563.60;1587.20;;;;;;5023932;28;20033;-76
2024/04/03 08:35:36;;;;;;;4.85;1.50;;;563.50;1587.20;;;;;;5028687;28;20076;-76
2024/04/03 08:38:02;;;;;;;4.30;1.73;;;538.40;1587.20;;;;;;5040485;28;20415;-75
2024/04/03 08:40:28;;;;;;;3.70;1.50;;;563.30;1612.80;;;;;;5038901;28;20026;-78
2024/04/03 08:42:54;;;;;;;2.97;1.60;;;563.30;1587.20;;;;;;5033199;28;20533;-75
2024/04/03 08:45:21;;;;;;;5.18;1.50;;;538.50;1587.20;;;;;;5025440;28;20104;-76
2024/04/03 08:47:50;;;;;;;6.00;1.40;;;563.30;1561.60;;;;;;5033660;28;20018;-76
2024/04/03 08:50:15;;;;;;;5.05;2.08;;;563.30;1510.40;;;;;;5030789;28;20042;-75
2024/04/03 08:52:42;;;;;;;5.72;1.98;;;563.30;1484.80;;;;;;5033225;28;20496;-73
2024/04/03 08:55:12;;;;;;;5.10;1.65;;;;;;;;;;5032632;28;20013;-74
2024/04/03 08:57:38;;;;;;;6.90;3.05;;;563.60;1510.40;;;;;;5035506;28;20049;-75
2024/04/03 09:00:05;;;;;;;4.20;1.88;;;563.80;1510.40;;;;;;5032503;28;20482;-79
2024/04/03 09:02:31;;;;;;;5.57;1.52;;;563.70;1484.80;;;;;;5017120;28;20055;-74
2024/04/03 09:04:56;;;;;;;5.85;1.92;;;563.90;1510.40;;;;;;5029793;28;20036;-81
2024/04/03 09:07:22;;;;;;;4.38;1.60;;;563.80;1484.80;;;;;;5025140;28;20029;-74
2024/04/03 09:09:48;;;;;;;3.70;1.50;;;563.40;1484.80;;;;;;5031793;28;20032;-76
2024/04/03 09:12:14;;;;;;;3.78;1.42;;;563.50;1484.80;;;;;;5009693;28;20116;-81
2024/04/03 09:14:41;;;;;;;7.22;1.70;;;563.60;1484.80;;;;;;5029121;28;20483;-76
2024/04/03 09:17:09;;;;;;;8.00;1.70;;;;;;;;;;5020283;28;20041;-76
2024/04/03 09:19:35;;;;;;;3.00;1.83;;;564.00;1408.00;;;;;;5029236;28;20056;-75
2024/04/03 09:22:02;;;;;;;3.72;1.58;;;563.90;1459.20;;;;;;5004722;28;20033;-76
2024/04/03 09:24:38;;;;;;;4.47;1.65;;;563.90;1459.20;;;;;;5030411;28;20044;-74
2024/04/03 09:27:09;;;;;;;4.90;1.67;;;563.90;1484.80;;;;;;5030054;28;20026;-75
2024/04/03 09:29:35;;;;;;;5.57;1.90;;;563.60;1459.20;;;;;;5027460;28;20033;-75
2024/04/03 09:32:02;;;;;;;4.25;1.88;;;563.70;1433.60;;;;;;5006631;28;20396;-74
2024/04/03 09:34:31;;;;;;;3.88;1.90;;;564.10;1408.00;;;;;;5033987;28;20033;-74
2024/04/03 09:36:57;;;;;;;6.07;1.92;;;563.80;1433.60;;;;;;5009088;28;20067;-72
2024/04/03 09:39:25;;;;;;;3.30;1.05;;;563.50;1459.20;;;;;;5033371;28;20025;-77
2024/04/03 09:41:52;;;;;;;6.15;1.20;;;564.00;1408.00;;;;;;5035279;28;20072;-75
2024/04/03 09:44:19;;;;;;;5.78;2.05;;;563.90;1433.60;;;;;;5029284;28;20167;-75
2024/04/03 09:47:05;;;;;;;5.75;1.40;;;588.80;1382.40;;;;;;5019812;28;20026;-74
2024/04/03 09:49:39;;;;;;;4.93;1.45;;;589.10;1356.80;;;;;;5027411;28;20032;-76
2024/04/03 09:52:07;;;;;;;9.60;2.05;;;589.20;1408.00;;;;;;5029889;28;20087;-73
2024/04/03 09:54:33;;;;;;;6.47;1.77;;;589.00;1459.20;;;;;;5027540;28;20463;-74
2024/04/03 09:56:59;;;;;;;4.35;1.85;;;589.30;1356.80;;;;;;5032183;28;20025;-75
2024/04/03 09:59:27;;;;;;;6.72;1.63;;;589.20;1356.80;;;;;;5021132;28;20028;-74
2024/04/03 10:01:53;;;;;;;5.45;1.45;;;;;;;;;;5020655;28;20022;-74
2024/04/03 10:04:19;;;;;;;3.50;1.30;;;614.40;1331.20;;;;;;5022821;28;20060;-75
2024/04/03 10:06:45;;;;;;;4.93;1.67;;;614.40;1305.60;;;;;;5022141;28;20014;-75
2024/04/03 10:09:23;;;;;;;5.72;1.67;;;589.50;1305.60;;;;;;5033314;28;20379;-75
2024/04/03 10:11:52;;;;;;;5.78;1.70;;;589.20;1305.60;;;;;;5025006;28;20472;-75
2024/04/03 10:14:26;;;;;;;7.00;1.75;;;589.20;1331.20;;;;;;5023240;28;20349;-76
2024/04/03 10:16:53;;;;;;;6.07;1.60;;;589.00;1382.40;;;;;;5029091;28;20040;-74
2024/04/03 10:19:20;;;;;;;4.07;2.15;;;589.50;1408.00;;;;;;5015188;28;20030;-74
2024/04/03 10:21:47;;;;;;;4.50;1.55;;;614.40;1305.60;;;;;;5028060;28;20028;-75
2024/04/03 10:24:13;;;;;;;5.43;1.92;;;615.00;1305.60;;;;;;5023388;28;20021;-78
2024/04/03 10:26:39;;;;;;;6.65;1.55;;;589.60;1305.60;;;;;;5033199;28;20094;-79
2024/04/03 10:29:05;;;;;;;3.28;1.77;;;589.10;1331.20;;;;;;5029698;28;20494;-75
2024/04/03 10:31:31;;;;;;;4.40;1.15;;;589.10;1280.00;;;;;;5027171;28;20116;-75
2024/04/03 10:33:57;;;;;;;5.03;1.60;;;589.70;1280.00;;;;;;5028049;28;20079;-73
2024/04/03 10:36:23;;;;;;;6.28;1.50;;;589.60;1305.60;;;;;;5030184;28;20033;-76
2024/04/03 10:38:49;;;;;;;4.97;2.03;;;589.40;1254.40;;;;;;5031691;28;20547;-74
2024/04/03 10:41:15;;;;;;;4.03;1.65;;;589.40;1254.40;;;;;;5027714;28;20025;-75
2024/04/03 10:43:41;;;;;;;4.63;1.50;;;589.40;1331.20;;;;;;5026105;28;20021;-74
2024/04/03 10:46:11;;;;;;;5.25;1.60;;;564.00;1305.60;;;;;;5028324;28;20034;-75
2024/04/03 10:48:42;;;;;;;4.00;1.88;;;564.10;1356.80;;;;;;5015823;28;20036;-73
2024/04/03 10:51:09;;;;;;;6.30;2.22;;;588.90;1331.20;;;;;;5029325;28;20079;-74
2024/04/03 10:53:35;;;;;;;3.95;1.63;;;564.00;1356.80;;;;;;5028494;28;20017;-74
2024/04/03 10:56:01;;;;;;;11.35;1.90;;;563.90;1356.80;;;;;;5031892;28;20041;-74
2024/04/03 10:58:29;;;;;;;7.38;1.88;;;563.60;1382.40;;;;;;5027036;28;20022;-74
2024/04/03 11:00:55;;;;;;;4.25;1.30;;;563.30;1382.40;;;;;;5007344;28;20447;-74
2024/04/03 11:03:22;;;;;;;3.65;1.73;;;563.50;1382.40;;;;;;5011495;28;20049;-74
2024/04/03 11:05:50;;;;;;;6.72;1.77;;;563.60;1331.20;;;;;;5028522;28;20033;-75
2024/04/03 11:08:16;;;;;;;4.55;1.65;;;563.60;1331.20;;;;;;5024384;28;21028;-76
2024/04/03 11:10:42;;;;;;;5.00;2.13;;;563.50;1331.20;;;;;;5026983;28;20120;-75
2024/04/03 11:13:09;;;;;;;10.38;1.83;;;563.60;1331.20;;;;;;5027963;28;20100;-77
2024/04/03 11:15:36;;;;;;;5.40;1.67;;;563.60;1356.80;;;;;;5016614;28;20041;-78
2024/04/03 11:18:03;;;;;;;6.60;1.85;;;563.60;1331.20;;;;;;5031432;28;20105;-73
2024/04/03 11:20:31;;;;;;;6.45;1.45;;;563.60;1356.80;;;;;;5026797;28;20014;-74
2024/04/03 11:22:59;;;;;;;6.70;2.03;;;563.40;1305.60;;;;;;5028433;28;20026;-73
2024/04/03 11:25:28;;;;;;;3.90;1.30;;;563.70;1305.60;;;;;;5027521;28;20045;-79
2024/04/03 11:27:56;;;;;;;3.45;1.00;;;563.60;1305.60;;;;;;5028036;28;20052;-73
2024/04/03 11:30:22;;;;;;;5.53;1.63;;;563.60;1280.00;;;;;;5026999;28;20022;-73
2024/04/03 11:32:49;;;;;;;6.95;1.20;;;563.80;1254.40;;;;;;5028811;28;20033;-70
2024/04/03 11:35:15;;;;;;;2.83;1.45;;;563.90;1254.40;;;;;;5027488;28;20064;-73
2024/04/03 11:37:41;;;;;;;5.00;1.52;;;564.00;1280.00;;;;;;5029817;28;20489;-73
2024/04/03 11:40:07;;;;;;;9.63;1.83;;;563.90;1280.00;;;;;;5027362;28;20018;-74
2024/04/03 11:42:35;;;;;;;5.90;1.20;;;564.10;1280.00;;;;;;5030244;28;20025;-77
2024/04/03 11:45:01;;;;;;;5.70;1.63;;;564.00;1254.40;;;;;;5022606;28;20025;-75
2024/04/03 11:47:27;;;;;;;2.88;1.50;;;588.80;1254.40;;;;;;4996794;28;20411;-75
2024/04/03 11:49:53;;;;;;;3.63;1.35;;;589.20;1203.20;;;;;;5024701;28;20036;-74
2024/04/03 11:52:19;;;;;;;4.18;1.20;;;;;;;;;;5027968;28;20025;-74
2024/04/03 11:54:45;;;;;;;4.13;1.38;;;589.60;1177.60;;;;;;5026588;28;20096;-76
2024/04/03 11:57:11;;;;;;;4.25;1.52;;;589.60;1203.20;;;;;;5007869;28;20117;-72
2024/04/03 11:59:39;;;;;;;3.58;1.67;;;589.20;1228.80;;;;;;5025829;28;20081;-72
2024/04/03 12:02:06;;;;;;;2.30;1.00;;;589.10;1203.20;;;;;;5020291;28;20114;-72
2024/04/03 12:04:32;;;;;;;5.68;1.52;;;589.10;1203.20;;;;;;5029102;28;20086;-73
2024/04/03 12:06:58;;;;;;;5.03;1.58;;;589.10;1177.60;;;;;;5025878;28;20022;-72
2024/04/03 12:09:25;;;;;;;3.47;1.33;;;589.20;1203.20;;;;;;5026900;28;20391;-72
2024/04/03 12:11:51;;;;;;;3.70;1.83;;;589.30;1177.60;;;;;;5038714;28;20032;-72
2024/04/03 12:14:17;;;;;;;5.45;1.88;;;589.10;1228.80;;;;;;5028882;28;20028;-73
2024/04/03 12:16:43;;;;;;;5.40;1.40;;;588.90;1228.80;;;;;;5023073;28;20035;-74
2024/04/03 12:19:13;;;;;;;5.80;1.30;;;589.20;1228.80;;;;;;5035538;28;20021;-74